createdAt,value
2018-07-17T00:00:26.846Z,0
2018-07-17T00:01:26.382Z,0
2018-07-17T00:02:26.891Z,0
2018-07-17T00:03:26.880Z,0
2018-07-17T00:04:26.673Z,0
2018-07-17T00:05:26.598Z,0
2018-07-17T00:06:26.589Z,0
2018-07-17T00:07:26.568Z,0
2018-07-17T00:08:26.830Z,0
2018-07-17T00:09:26.808Z,0
2018-07-17T00:10:26.534Z,0
2018-07-17T00:11:27.057Z,0
2018-07-17T00:12:26.514Z,0
2018-07-17T00:13:26.780Z,0
2018-07-17T00:14:26.507Z,0
2018-07-17T00:15:26.751Z,0
2018-07-17T00:16:26.482Z,0
2018-07-17T00:17:26.741Z,0
2018-07-17T00:18:26.994Z,0
2018-07-17T00:19:26.711Z,0
2018-07-17T00:20:26.440Z,0
2018-07-17T00:21:26.430Z,0
2018-07-17T00:22:26.947Z,0
2018-07-17T00:23:26.678Z,0
2018-07-17T00:24:26.658Z,0
2018-07-17T00:25:26.663Z,0
2018-07-17T00:26:26.911Z,0
2018-07-17T00:27:26.374Z,0
2018-07-17T00:28:26.098Z,0
2018-07-17T00:29:26.874Z,0
2018-07-17T00:30:26.622Z,0
2018-07-17T00:31:26.065Z,0
2018-07-17T00:32:26.582Z,0
2018-07-17T00:33:26.585Z,0
2018-07-17T00:34:26.565Z,0
2018-07-17T00:35:26.551Z,0
2018-07-17T00:36:25.753Z,0
2018-07-17T00:37:26.005Z,0
2018-07-17T00:38:26.264Z,0
2018-07-17T00:39:26.252Z,0
2018-07-17T00:40:26.241Z,0
2018-07-17T00:41:26.221Z,0
2018-07-17T00:42:26.267Z,0
2018-07-17T00:43:26.737Z,0
2018-07-17T00:44:26.464Z,0
2018-07-17T00:45:26.180Z,0
2018-07-17T00:46:26.436Z,0
2018-07-17T00:47:26.439Z,0
2018-07-17T00:48:26.159Z,0
2018-07-17T00:49:26.405Z,0
2018-07-17T00:50:26.663Z,0
2018-07-17T00:51:25.866Z,0
2018-07-17T00:52:26.635Z,0
2018-07-17T00:53:25.845Z,0
2018-07-17T00:54:26.630Z,0
2018-07-17T00:55:26.349Z,0
2018-07-17T00:56:26.066Z,0
2018-07-17T00:57:26.068Z,0
2018-07-17T00:58:26.044Z,0
2018-07-17T00:59:26.296Z,0
2018-07-17T01:00:26.553Z,0
2018-07-17T01:01:26.300Z,0
2018-07-17T01:02:26.015Z,0
2018-07-17T01:03:25.993Z,0
2018-07-17T01:04:25.993Z,0
2018-07-17T01:05:26.240Z,0
2018-07-17T01:06:26.549Z,0
2018-07-17T01:07:26.312Z,0
2018-07-17T01:08:26.206Z,0
2018-07-17T01:09:26.197Z,0
2018-07-17T01:10:26.182Z,0
2018-07-17T01:11:26.183Z,0
2018-07-17T01:12:25.904Z,0
2018-07-17T01:13:25.890Z,0
2018-07-17T01:14:26.140Z,0
2018-07-17T01:15:26.130Z,0
2018-07-17T01:16:25.866Z,0
2018-07-17T01:17:26.380Z,0
2018-07-17T01:18:26.363Z,0
2018-07-17T01:19:26.099Z,0
2018-07-17T01:20:25.544Z,0
2018-07-17T01:21:26.071Z,0
2018-07-17T01:22:26.078Z,0
2018-07-17T01:23:25.784Z,0
2018-07-17T01:24:26.304Z,0
2018-07-17T01:25:25.500Z,0
2018-07-17T01:26:26.271Z,0
2018-07-17T01:27:25.747Z,0
2018-07-17T01:28:25.998Z,0
2018-07-17T01:29:25.455Z,0
2018-07-17T01:30:25.974Z,0
2018-07-17T01:31:25.430Z,0
2018-07-17T01:32:25.434Z,0
2018-07-17T01:33:25.678Z,0
2018-07-17T01:34:26.204Z,0
2018-07-17T01:35:25.646Z,0
2018-07-17T01:36:25.638Z,0
2018-07-17T01:37:25.897Z,0
2018-07-17T01:38:26.038Z,0
2018-07-17T01:39:25.605Z,0
2018-07-17T01:40:25.596Z,0
2018-07-17T01:41:25.328Z,0
2018-07-17T01:42:25.836Z,0
2018-07-17T01:43:25.827Z,0
2018-07-17T01:44:25.292Z,0
2018-07-17T01:45:25.542Z,0
2018-07-17T01:46:25.790Z,0
2018-07-17T01:47:25.522Z,0
2018-07-17T01:48:25.505Z,0
2018-07-17T01:49:25.232Z,0
2018-07-17T01:50:25.491Z,0
2018-07-17T01:51:25.740Z,0
2018-07-17T01:52:25.465Z,0
2018-07-17T01:53:25.732Z,0
2018-07-17T01:54:25.703Z,0
2018-07-17T01:55:25.904Z,0
2018-07-17T01:56:25.949Z,0
2018-07-17T01:57:25.937Z,0
2018-07-17T01:58:25.135Z,0
2018-07-17T01:59:25.908Z,0
2018-07-17T02:00:25.786Z,0
2018-07-17T02:01:25.635Z,0
2018-07-17T02:02:25.620Z,0
2018-07-17T02:03:25.871Z,0
2018-07-17T02:04:25.857Z,0
2018-07-17T02:05:25.583Z,0
2018-07-17T02:06:25.573Z,0
2018-07-17T02:07:25.816Z,0
2018-07-17T02:08:25.022Z,0
2018-07-17T02:09:25.798Z,0
2018-07-17T02:10:25.252Z,0
2018-07-17T02:11:25.251Z,0
2018-07-17T02:12:25.238Z,0
2018-07-17T02:13:25.494Z,0
2018-07-17T02:14:25.751Z,0
2018-07-17T02:15:25.472Z,0
2018-07-17T02:16:25.453Z,0
2018-07-17T02:17:25.712Z,0
2018-07-17T02:18:25.426Z,0
2018-07-17T02:19:25.163Z,0
2018-07-17T02:20:25.149Z,0
2018-07-17T02:21:25.134Z,0
2018-07-17T02:22:25.389Z,0
2018-07-17T02:23:25.108Z,0
2018-07-17T02:24:25.394Z,0
2018-07-17T02:25:25.618Z,0
2018-07-17T02:26:25.355Z,0
2018-07-17T02:27:25.348Z,0
2018-07-17T02:28:25.068Z,0
2018-07-17T02:29:25.057Z,0
2018-07-17T02:30:25.580Z,0
2018-07-17T02:31:24.497Z,0
2018-07-17T02:32:25.288Z,0
2018-07-17T02:33:25.545Z,0
2018-07-17T02:34:24.988Z,0
2018-07-17T02:35:25.250Z,0
2018-07-17T02:36:25.237Z,0
2018-07-17T02:37:25.278Z,0
2018-07-17T02:38:25.212Z,0
2018-07-17T02:39:25.462Z,0
2018-07-17T02:40:25.453Z,0
2018-07-17T02:41:24.912Z,0
2018-07-17T02:42:25.897Z,0
2018-07-17T02:43:24.883Z,0
2018-07-17T02:44:25.147Z,0
2018-07-17T02:45:25.143Z,0
2018-07-17T02:46:24.884Z,0
2018-07-17T02:47:25.376Z,0
2018-07-17T02:48:25.117Z,0
2018-07-17T02:49:25.094Z,0
2018-07-17T02:50:24.817Z,0
2018-07-17T02:51:24.810Z,0
2018-07-17T02:52:25.394Z,0
2018-07-17T02:53:25.040Z,0
2018-07-17T02:54:25.034Z,0
2018-07-17T02:55:24.751Z,0
2018-07-17T02:56:25.004Z,0
2018-07-17T02:57:25.277Z,0
2018-07-17T02:58:24.718Z,0
2018-07-17T02:59:24.437Z,0
2018-07-17T03:00:24.701Z,0
2018-07-17T03:01:24.691Z,0
2018-07-17T03:02:24.676Z,0
2018-07-17T03:03:24.931Z,0
2018-07-17T03:04:24.909Z,0
2018-07-17T03:05:24.889Z,0
2018-07-17T03:06:25.161Z,0
2018-07-17T03:07:24.894Z,0
2018-07-17T03:08:24.860Z,0
2018-07-17T03:09:24.319Z,0
2018-07-17T03:10:25.097Z,0
2018-07-17T03:11:24.575Z,0
2018-07-17T03:12:24.829Z,0
2018-07-17T03:13:24.883Z,0
2018-07-17T03:14:24.814Z,0
2018-07-17T03:15:24.788Z,0
2018-07-17T03:16:24.778Z,0
2018-07-17T03:17:24.773Z,0
2018-07-17T03:18:24.754Z,0
2018-07-17T03:19:24.779Z,0
2018-07-17T03:20:24.730Z,0
2018-07-17T03:21:24.725Z,0
2018-07-17T03:22:24.965Z,0
2018-07-17T03:23:24.686Z,0
2018-07-17T03:24:24.710Z,0
2018-07-17T03:25:24.668Z,0
2018-07-17T03:26:24.662Z,0
2018-07-17T03:27:24.643Z,0
2018-07-17T03:28:24.907Z,0
2018-07-17T03:29:24.617Z,0
2018-07-17T03:30:24.605Z,0
2018-07-17T03:31:24.595Z,0
2018-07-17T03:32:24.578Z,0
2018-07-17T03:33:24.321Z,0
2018-07-17T03:34:24.560Z,0
2018-07-17T03:35:23.765Z,0
2018-07-17T03:36:24.607Z,5
2018-07-17T03:37:24.516Z,5
2018-07-17T03:38:24.518Z,5
2018-07-17T03:39:24.769Z,5
2018-07-17T03:40:24.489Z,5
2018-07-17T03:41:24.214Z,5
2018-07-17T03:42:24.469Z,5
2018-07-17T03:43:24.442Z,5
2018-07-17T03:44:24.437Z,5
2018-07-17T03:45:24.160Z,5
2018-07-17T03:46:23.896Z,5
2018-07-17T03:47:24.405Z,5
2018-07-17T03:48:24.399Z,5
2018-07-17T03:49:24.372Z,5
2018-07-17T03:50:24.624Z,5
2018-07-17T03:51:24.402Z,5
2018-07-17T03:52:24.141Z,10
2018-07-17T03:53:24.081Z,10
2018-07-17T03:54:24.058Z,10
2018-07-17T03:55:24.306Z,10
2018-07-17T03:56:24.025Z,10
2018-07-17T03:57:24.016Z,10
2018-07-17T03:58:24.279Z,10
2018-07-17T03:59:24.267Z,10
2018-07-17T04:00:24.714Z,10
2018-07-17T04:01:23.710Z,15
2018-07-17T04:02:24.229Z,15
2018-07-17T04:03:24.477Z,15
2018-07-17T04:04:24.633Z,15
2018-07-17T04:05:24.200Z,15
2018-07-17T04:06:23.927Z,15
2018-07-17T04:07:24.163Z,15
2018-07-17T04:08:23.627Z,20
2018-07-17T04:09:24.405Z,20
2018-07-17T04:10:24.403Z,20
2018-07-17T04:11:23.911Z,20
2018-07-17T04:12:24.120Z,20
2018-07-17T04:13:24.254Z,20
2018-07-17T04:14:23.553Z,20
2018-07-17T04:15:24.339Z,20
2018-07-17T04:16:24.068Z,20
2018-07-17T04:17:23.790Z,20
2018-07-17T04:18:24.352Z,20
2018-07-17T04:19:24.283Z,25
2018-07-17T04:20:23.757Z,25
2018-07-17T04:21:24.283Z,25
2018-07-17T04:22:23.740Z,25
2018-07-17T04:23:23.985Z,25
2018-07-17T04:24:23.974Z,25
2018-07-17T04:25:23.695Z,25
2018-07-17T04:26:23.676Z,25
2018-07-17T04:27:23.929Z,25
2018-07-17T04:28:24.187Z,25
2018-07-17T04:29:23.908Z,25
2018-07-17T04:30:23.630Z,30
2018-07-17T04:31:23.890Z,30
2018-07-17T04:32:23.883Z,30
2018-07-17T04:33:23.666Z,30
2018-07-17T04:34:23.858Z,30
2018-07-17T04:35:23.577Z,30
2018-07-17T04:36:23.819Z,30
2018-07-17T04:37:24.067Z,30
2018-07-17T04:38:23.334Z,30
2018-07-17T04:39:24.057Z,35
2018-07-17T04:40:23.784Z,35
2018-07-17T04:41:23.768Z,35
2018-07-17T04:42:23.764Z,35
2018-07-17T04:43:23.212Z,35
2018-07-17T04:44:24.006Z,35
2018-07-17T04:45:24.042Z,35
2018-07-17T04:46:23.193Z,35
2018-07-17T04:47:23.427Z,35
2018-07-17T04:48:23.693Z,40
2018-07-17T04:49:23.683Z,40
2018-07-17T04:50:23.940Z,40
2018-07-17T04:51:22.861Z,40
2018-07-17T04:52:23.377Z,40
2018-07-17T04:53:23.892Z,40
2018-07-17T04:54:23.644Z,40
2018-07-17T04:55:23.077Z,40
2018-07-17T04:56:23.329Z,40
2018-07-17T04:57:23.592Z,40
2018-07-17T04:58:23.563Z,45
2018-07-17T04:59:23.564Z,45
2018-07-17T05:00:23.821Z,45
2018-07-17T05:01:23.563Z,45
2018-07-17T05:02:23.268Z,45
2018-07-17T05:03:23.246Z,45
2018-07-17T05:04:23.505Z,45
2018-07-17T05:05:23.504Z,45
2018-07-17T05:06:23.493Z,50
2018-07-17T05:07:22.951Z,50
2018-07-17T05:08:23.471Z,50
2018-07-17T05:09:23.187Z,50
2018-07-17T05:10:23.453Z,50
2018-07-17T05:11:23.162Z,50
2018-07-17T05:12:23.150Z,50
2018-07-17T05:13:23.677Z,50
2018-07-17T05:14:23.132Z,50
2018-07-17T05:15:23.385Z,50
2018-07-17T05:16:23.222Z,50
2018-07-17T05:17:23.365Z,55
2018-07-17T05:18:23.624Z,55
2018-07-17T05:19:23.348Z,55
2018-07-17T05:20:23.773Z,55
2018-07-17T05:21:23.395Z,55
2018-07-17T05:22:23.303Z,55
2018-07-17T05:23:22.769Z,55
2018-07-17T05:24:23.292Z,55
2018-07-17T05:25:23.009Z,55
2018-07-17T05:26:23.285Z,55
2018-07-17T05:27:23.254Z,55
2018-07-17T05:28:23.513Z,55
2018-07-17T05:29:22.963Z,55
2018-07-17T05:30:23.217Z,55
2018-07-17T05:31:23.216Z,55
2018-07-17T05:32:23.216Z,60
2018-07-17T05:33:22.933Z,60
2018-07-17T05:34:22.906Z,60
2018-07-17T05:35:23.533Z,60
2018-07-17T05:36:22.946Z,55
2018-07-17T05:37:22.880Z,60
2018-07-17T05:38:22.867Z,60
2018-07-17T05:39:22.598Z,60
2018-07-17T05:40:23.381Z,65
2018-07-17T05:41:23.101Z,70
2018-07-17T05:42:22.837Z,75
2018-07-17T05:43:23.463Z,80
2018-07-17T05:44:22.834Z,85
2018-07-17T05:45:22.795Z,90
2018-07-17T05:46:22.829Z,95
2018-07-17T05:47:22.770Z,105
2018-07-17T05:48:22.762Z,110
2018-07-17T05:49:23.022Z,115
2018-07-17T05:50:23.039Z,115
2018-07-17T05:51:22.991Z,115
2018-07-17T05:52:22.997Z,110
2018-07-17T05:53:22.701Z,105
2018-07-17T05:54:22.435Z,100
2018-07-17T05:55:22.700Z,100
2018-07-17T05:56:22.683Z,100
2018-07-17T05:57:22.942Z,100
2018-07-17T05:58:22.932Z,100
2018-07-17T05:59:22.661Z,100
2018-07-17T06:00:23.179Z,100
2018-07-17T06:01:23.091Z,105
2018-07-17T06:02:22.356Z,105
2018-07-17T06:03:23.053Z,105
2018-07-17T06:04:22.883Z,100
2018-07-17T06:05:22.597Z,95
2018-07-17T06:06:22.585Z,85
2018-07-17T06:07:22.838Z,75
2018-07-17T06:08:22.340Z,75
2018-07-17T06:09:22.298Z,75
2018-07-17T06:10:22.368Z,75
2018-07-17T06:11:22.815Z,70
2018-07-17T06:12:22.789Z,70
2018-07-17T06:13:22.576Z,70
2018-07-17T06:14:22.773Z,70
2018-07-17T06:15:22.498Z,70
2018-07-17T06:16:22.506Z,70
2018-07-17T06:17:23.011Z,70
2018-07-17T06:18:22.824Z,75
2018-07-17T06:19:22.776Z,110
2018-07-17T06:20:22.494Z,125
2018-07-17T06:21:22.973Z,100
2018-07-17T06:22:22.867Z,90
2018-07-17T06:23:21.905Z,100
2018-07-17T06:24:22.709Z,80
2018-07-17T06:25:22.787Z,80
2018-07-17T06:26:22.403Z,80
2018-07-17T06:27:22.952Z,80
2018-07-17T06:28:22.380Z,75
2018-07-17T06:29:22.110Z,75
2018-07-17T06:30:22.374Z,75
2018-07-17T06:31:22.357Z,75
2018-07-17T06:32:22.613Z,75
2018-07-17T06:33:22.934Z,75
2018-07-17T06:34:22.604Z,75
2018-07-17T06:35:22.581Z,75
2018-07-17T06:36:22.861Z,75
2018-07-17T06:37:22.584Z,75
2018-07-17T06:38:22.561Z,80
2018-07-17T06:39:22.558Z,80
2018-07-17T06:40:22.009Z,80
2018-07-17T06:41:22.801Z,80
2018-07-17T06:42:22.795Z,80
2018-07-17T06:43:22.783Z,80
2018-07-17T06:44:21.980Z,80
2018-07-17T06:45:22.247Z,80
2018-07-17T06:46:22.225Z,80
2018-07-17T06:47:22.483Z,80
2018-07-17T06:48:22.210Z,80
2018-07-17T06:49:22.739Z,80
2018-07-17T06:50:23.306Z,80
2018-07-17T06:51:21.921Z,85
2018-07-17T06:52:22.705Z,85
2018-07-17T06:53:21.906Z,85
2018-07-17T06:54:22.422Z,85
2018-07-17T06:55:22.151Z,85
2018-07-17T06:56:22.406Z,85
2018-07-17T06:57:22.757Z,85
2018-07-17T06:58:22.390Z,90
2018-07-17T06:59:22.379Z,90
2018-07-17T07:00:22.375Z,95
2018-07-17T07:01:22.099Z,100
2018-07-17T07:02:22.091Z,105
2018-07-17T07:03:22.617Z,105
2018-07-17T07:04:22.072Z,110
2018-07-17T07:05:22.569Z,110
2018-07-17T07:06:22.332Z,110
2018-07-17T07:07:22.577Z,110
2018-07-17T07:08:22.302Z,105
2018-07-17T07:09:22.295Z,100
2018-07-17T07:10:22.564Z,100
2018-07-17T07:11:22.546Z,100
2018-07-17T07:12:21.748Z,100
2018-07-17T07:13:21.739Z,100
2018-07-17T07:14:21.727Z,100
2018-07-17T07:15:22.253Z,105
2018-07-17T07:16:22.501Z,105
2018-07-17T07:17:21.976Z,105
2018-07-17T07:18:21.698Z,105
2018-07-17T07:19:21.959Z,105
2018-07-17T07:20:22.481Z,110
2018-07-17T07:21:22.219Z,110
2018-07-17T07:22:21.926Z,110
2018-07-17T07:23:22.089Z,115
2018-07-17T07:24:21.648Z,115
2018-07-17T07:25:22.456Z,115
2018-07-17T07:26:22.161Z,115
2018-07-17T07:27:22.143Z,115
2018-07-17T07:28:21.877Z,115
2018-07-17T07:29:21.619Z,115
2018-07-17T07:30:21.865Z,120
2018-07-17T07:31:22.137Z,120
2018-07-17T07:32:21.907Z,120
2018-07-17T07:33:22.107Z,120
2018-07-17T07:34:21.580Z,300
2018-07-17T07:35:21.827Z,760
2018-07-17T07:36:22.084Z,940
2018-07-17T07:37:21.944Z,945
2018-07-17T07:38:22.349Z,945
2018-07-17T07:39:22.075Z,965
2018-07-17T07:40:22.053Z,1000
2018-07-17T07:41:22.376Z,1015
2018-07-17T07:42:21.254Z,1035
2018-07-17T07:43:21.785Z,1065
2018-07-17T07:44:21.510Z,1090
2018-07-17T07:45:22.030Z,1085
2018-07-17T07:46:22.295Z,1075
2018-07-17T07:47:21.761Z,1095
2018-07-17T07:48:21.763Z,1080
2018-07-17T07:49:22.400Z,1045
2018-07-17T07:50:22.012Z,1060
2018-07-17T07:51:21.752Z,1090
2018-07-17T07:52:22.283Z,1130
2018-07-17T07:53:21.743Z,1170
2018-07-17T07:54:21.737Z,1160
2018-07-17T07:55:22.268Z,1125
2018-07-17T07:56:22.007Z,1100
2018-07-17T07:57:21.726Z,1090
2018-07-17T07:58:21.745Z,1140
2018-07-17T07:59:21.797Z,1190
2018-07-17T08:00:22.005Z,1165
2018-07-17T08:01:22.195Z,1145
2018-07-17T08:02:22.000Z,1180
2018-07-17T08:03:22.263Z,1220
2018-07-17T08:04:21.728Z,1235
2018-07-17T08:05:21.725Z,1220
2018-07-17T08:06:22.290Z,1165
2018-07-17T08:07:21.193Z,1165
2018-07-17T08:08:22.250Z,1200
2018-07-17T08:09:21.450Z,1200
2018-07-17T08:10:21.994Z,1195
2018-07-17T08:11:22.247Z,1215
2018-07-17T08:12:22.242Z,1215
2018-07-17T08:13:22.266Z,1165
2018-07-17T08:14:21.727Z,1100
2018-07-17T08:15:21.723Z,1080
2018-07-17T08:16:21.725Z,1060
2018-07-17T08:17:21.983Z,1060
2018-07-17T08:18:21.987Z,1065
2018-07-17T08:19:21.724Z,1095
2018-07-17T08:20:21.728Z,1150
2018-07-17T08:21:21.471Z,1185
2018-07-17T08:22:21.996Z,1185
2018-07-17T08:23:22.000Z,1165
2018-07-17T08:24:21.879Z,1135
2018-07-17T08:25:21.735Z,1095
2018-07-17T08:26:22.279Z,1095
2018-07-17T08:27:21.736Z,370
2018-07-17T08:28:22.264Z,480
2018-07-17T08:29:22.003Z,195
2018-07-17T08:30:21.746Z,360
2018-07-17T08:31:21.745Z,395
2018-07-17T08:32:21.744Z,370
2018-07-17T08:33:22.281Z,400
2018-07-17T08:34:22.007Z,595
2018-07-17T08:35:22.013Z,320
2018-07-17T08:36:22.277Z,385
2018-07-17T08:37:22.016Z,550
2018-07-17T08:38:22.000Z,830
2018-07-17T08:39:21.472Z,895
2018-07-17T08:40:22.288Z,950
2018-07-17T08:41:21.467Z,840
2018-07-17T08:42:22.004Z,590
2018-07-17T08:43:22.268Z,485
2018-07-17T08:44:22.001Z,330
2018-07-17T08:45:22.265Z,275
2018-07-17T08:46:22.266Z,290
2018-07-17T08:47:21.997Z,285
2018-07-17T08:48:21.999Z,265
2018-07-17T08:49:22.260Z,270
2018-07-17T08:50:21.981Z,280
2018-07-17T08:51:21.987Z,285
2018-07-17T08:52:21.990Z,295
2018-07-17T08:53:21.463Z,300
2018-07-17T08:54:21.996Z,325
2018-07-17T08:55:21.718Z,305
2018-07-17T08:56:21.719Z,290
2018-07-17T08:57:22.026Z,300
2018-07-17T08:58:21.979Z,310
2018-07-17T08:59:21.972Z,330
2018-07-17T09:00:22.058Z,335
2018-07-17T09:01:21.445Z,530
2018-07-17T09:02:21.978Z,365
2018-07-17T09:03:21.964Z,635
2018-07-17T09:04:21.694Z,540
2018-07-17T09:05:21.958Z,900
2018-07-17T09:06:22.224Z,795
2018-07-17T09:07:21.746Z,1205
2018-07-17T09:08:22.230Z,1190
2018-07-17T09:09:21.955Z,1195
2018-07-17T09:10:21.947Z,1065
2018-07-17T09:11:21.678Z,855
2018-07-17T09:12:21.682Z,400
2018-07-17T09:13:22.039Z,490
2018-07-17T09:14:21.940Z,465
2018-07-17T09:15:21.677Z,415
2018-07-17T09:16:21.400Z,455
2018-07-17T09:17:21.950Z,460
2018-07-17T09:18:21.936Z,445
2018-07-17T09:19:21.667Z,390
2018-07-17T09:20:21.934Z,330
2018-07-17T09:21:22.200Z,320
2018-07-17T09:22:22.019Z,375
2018-07-17T09:23:22.199Z,330
2018-07-17T09:24:21.654Z,350
2018-07-17T09:25:21.913Z,340
2018-07-17T09:26:21.383Z,520
2018-07-17T09:27:21.910Z,565
2018-07-17T09:28:22.009Z,585
2018-07-17T09:29:21.923Z,795
2018-07-17T09:30:21.921Z,840
2018-07-17T09:31:21.654Z,890
2018-07-17T09:32:21.650Z,910
2018-07-17T09:33:21.910Z,530
2018-07-17T09:34:21.644Z,525
2018-07-17T09:35:21.650Z,485
2018-07-17T09:36:21.632Z,460
2018-07-17T09:37:21.894Z,465
2018-07-17T09:38:21.637Z,485
2018-07-17T09:39:21.642Z,390
2018-07-17T09:40:21.628Z,370
2018-07-17T09:41:21.635Z,360
2018-07-17T09:42:22.161Z,360
2018-07-17T09:43:22.150Z,365
2018-07-17T09:44:21.767Z,365
2018-07-17T09:45:21.619Z,375
2018-07-17T09:46:21.619Z,380
2018-07-17T09:47:22.140Z,405
2018-07-17T09:48:21.339Z,435
2018-07-17T09:49:21.863Z,450
2018-07-17T09:50:21.600Z,430
2018-07-17T09:51:21.605Z,425
2018-07-17T09:52:21.866Z,425
2018-07-17T09:53:21.863Z,415
2018-07-17T09:54:21.149Z,445
2018-07-17T09:55:21.847Z,475
2018-07-17T09:56:22.112Z,520
2018-07-17T09:57:22.109Z,475
2018-07-17T09:58:21.594Z,520
2018-07-17T09:59:21.836Z,520
2018-07-17T10:00:21.842Z,465
2018-07-17T10:01:22.047Z,450
2018-07-17T10:02:21.563Z,440
2018-07-17T10:03:21.565Z,440
2018-07-17T10:04:21.843Z,430
2018-07-17T10:05:21.302Z,430
2018-07-17T10:06:21.710Z,440
2018-07-17T10:07:21.881Z,455
2018-07-17T10:08:21.294Z,465
2018-07-17T10:09:21.843Z,470
2018-07-17T10:10:21.824Z,460
2018-07-17T10:11:21.549Z,445
2018-07-17T10:12:22.079Z,425
2018-07-17T10:13:22.080Z,430
2018-07-17T10:14:22.113Z,415
2018-07-17T10:15:22.068Z,555
2018-07-17T10:16:21.555Z,980
2018-07-17T10:17:21.804Z,435
2018-07-17T10:18:21.544Z,565
2018-07-17T10:19:21.787Z,565
2018-07-17T10:20:21.350Z,380
2018-07-17T10:21:21.531Z,660
2018-07-17T10:22:21.260Z,455
2018-07-17T10:23:21.518Z,615
2018-07-17T10:24:21.538Z,745
2018-07-17T10:25:21.294Z,1020
2018-07-17T10:26:21.714Z,1345
2018-07-17T10:27:21.776Z,680
2018-07-17T10:28:21.777Z,840
2018-07-17T10:29:21.809Z,1340
2018-07-17T10:30:21.777Z,1020
2018-07-17T10:31:22.029Z,1505
2018-07-17T10:32:22.029Z,1360
2018-07-17T10:33:21.506Z,1355
2018-07-17T10:34:21.776Z,1460
2018-07-17T10:35:22.036Z,1535
2018-07-17T10:36:21.765Z,1595
2018-07-17T10:37:21.788Z,1635
2018-07-17T10:38:21.505Z,1695
2018-07-17T10:39:21.775Z,1655
2018-07-17T10:40:21.507Z,1625
2018-07-17T10:41:20.991Z,1635
2018-07-17T10:42:21.772Z,1650
2018-07-17T10:43:21.787Z,1690
2018-07-17T10:44:21.786Z,1750
2018-07-17T10:45:22.054Z,1840
2018-07-17T10:46:21.796Z,1870
2018-07-17T10:47:21.798Z,1850
2018-07-17T10:48:21.537Z,1815
2018-07-17T10:49:21.797Z,1805
2018-07-17T10:50:21.544Z,1725
2018-07-17T10:51:22.077Z,1700
2018-07-17T10:52:21.287Z,1665
2018-07-17T10:53:21.024Z,1615
2018-07-17T10:54:21.562Z,1580
2018-07-17T10:55:21.587Z,1585
2018-07-17T10:56:21.592Z,1570
2018-07-17T10:57:21.958Z,1635
2018-07-17T10:58:21.329Z,1675
2018-07-17T10:59:21.587Z,1670
2018-07-17T11:00:21.581Z,1715
2018-07-17T11:01:21.602Z,1680
2018-07-17T11:02:21.868Z,1650
2018-07-17T11:03:21.880Z,1590
2018-07-17T11:04:21.344Z,1490
2018-07-17T11:05:22.149Z,1420
2018-07-17T11:06:21.897Z,1490
2018-07-17T11:07:21.891Z,1645
2018-07-17T11:08:21.757Z,1095
2018-07-17T11:09:21.633Z,1120
2018-07-17T11:10:21.915Z,1730
2018-07-17T11:11:21.642Z,870
2018-07-17T11:12:21.920Z,560
2018-07-17T11:13:21.657Z,1520
2018-07-17T11:14:21.667Z,1480
2018-07-17T11:15:21.131Z,1515
2018-07-17T11:16:21.408Z,1455
2018-07-17T11:17:21.937Z,1580
2018-07-17T11:18:21.940Z,1575
2018-07-17T11:19:21.943Z,1580
2018-07-17T11:20:21.962Z,1640
2018-07-17T11:21:21.715Z,1735
2018-07-17T11:22:22.229Z,875
2018-07-17T11:23:21.705Z,740
2018-07-17T11:24:21.703Z,1450
2018-07-17T11:25:21.458Z,1380
2018-07-17T11:26:21.993Z,1225
2018-07-17T11:27:21.996Z,1470
2018-07-17T11:28:22.265Z,1385
2018-07-17T11:29:22.008Z,1380
2018-07-17T11:30:22.292Z,1545
2018-07-17T11:31:22.018Z,1480
2018-07-17T11:32:22.033Z,1660
2018-07-17T11:33:22.018Z,1795
2018-07-17T11:34:22.299Z,1785
2018-07-17T11:35:22.292Z,1660
2018-07-17T11:36:21.506Z,1600
2018-07-17T11:37:22.051Z,1555
2018-07-17T11:38:22.058Z,1560
2018-07-17T11:39:22.064Z,1635
2018-07-17T11:40:21.523Z,1565
2018-07-17T11:41:21.803Z,1380
2018-07-17T11:42:22.067Z,855
2018-07-17T11:43:22.077Z,640
2018-07-17T11:44:21.553Z,800
2018-07-17T11:45:22.079Z,545
2018-07-17T11:46:21.829Z,1295
2018-07-17T11:47:21.848Z,1565
2018-07-17T11:48:21.853Z,1605
2018-07-17T11:49:21.837Z,1550
2018-07-17T11:50:22.118Z,1545
2018-07-17T11:51:21.866Z,1445
2018-07-17T11:52:22.116Z,1455
2018-07-17T11:53:22.036Z,1545
2018-07-17T11:54:22.415Z,1650
2018-07-17T11:55:22.123Z,1680
2018-07-17T11:56:22.416Z,1770
2018-07-17T11:57:22.412Z,1760
2018-07-17T11:58:22.154Z,1725
2018-07-17T11:59:22.770Z,1765
2018-07-17T12:00:22.179Z,1770
2018-07-17T12:01:21.842Z,1730
2018-07-17T12:02:22.451Z,1695
2018-07-17T12:03:21.931Z,1630
2018-07-17T12:04:21.921Z,1645
2018-07-17T12:05:22.210Z,1695
2018-07-17T12:06:22.199Z,1700
2018-07-17T12:07:21.681Z,1640
2018-07-17T12:08:22.423Z,1585
2018-07-17T12:09:22.212Z,1595
2018-07-17T12:10:22.494Z,1585
2018-07-17T12:11:21.697Z,1590
2018-07-17T12:12:22.235Z,1685
2018-07-17T12:13:21.993Z,1750
2018-07-17T12:14:21.720Z,1770
2018-07-17T12:15:22.540Z,1815
2018-07-17T12:16:21.733Z,1795
2018-07-17T12:17:22.267Z,1770
2018-07-17T12:18:22.264Z,1750
2018-07-17T12:19:22.012Z,1740
2018-07-17T12:20:23.107Z,1745
2018-07-17T12:21:22.553Z,1740
2018-07-17T12:22:22.035Z,1715
2018-07-17T12:23:21.771Z,1725
2018-07-17T12:24:22.572Z,1770
2018-07-17T12:25:22.578Z,1855
2018-07-17T12:26:21.840Z,1020
2018-07-17T12:27:21.815Z,1690
2018-07-17T12:28:22.077Z,1550
2018-07-17T12:29:22.602Z,1080
2018-07-17T12:30:22.363Z,1630
2018-07-17T12:31:22.084Z,1695
2018-07-17T12:32:22.642Z,1735
2018-07-17T12:33:21.847Z,1750
2018-07-17T12:34:22.111Z,1790
2018-07-17T12:35:22.116Z,1840
2018-07-17T12:36:22.657Z,1780
2018-07-17T12:37:22.437Z,1805
2018-07-17T12:38:22.135Z,1815
2018-07-17T12:39:22.410Z,1820
2018-07-17T12:40:21.885Z,1765
2018-07-17T12:41:22.679Z,1860
2018-07-17T12:42:22.441Z,1820
2018-07-17T12:43:22.458Z,1775
2018-07-17T12:44:23.197Z,1740
2018-07-17T12:45:22.178Z,1650
2018-07-17T12:46:21.920Z,1635
2018-07-17T12:47:21.927Z,1585
2018-07-17T12:48:22.729Z,1535
2018-07-17T12:49:22.521Z,1480
2018-07-17T12:50:22.754Z,1465
2018-07-17T12:51:22.225Z,1520
2018-07-17T12:52:22.508Z,1640
2018-07-17T12:53:22.582Z,1670
2018-07-17T12:54:22.775Z,1265
2018-07-17T12:55:22.521Z,1220
2018-07-17T12:56:22.080Z,920
2018-07-17T12:57:22.267Z,1650
2018-07-17T12:58:22.800Z,1685
2018-07-17T12:59:22.281Z,1790
2018-07-17T13:00:22.310Z,1800
2018-07-17T13:01:22.317Z,1815
2018-07-17T13:02:22.568Z,1700
2018-07-17T13:03:22.840Z,1670
2018-07-17T13:04:22.314Z,1675
2018-07-17T13:05:22.590Z,1695
2018-07-17T13:06:22.598Z,1750
2018-07-17T13:07:22.341Z,1795
2018-07-17T13:08:22.598Z,1840
2018-07-17T13:09:22.846Z,1820
2018-07-17T13:10:22.617Z,1750
2018-07-17T13:11:22.625Z,1745
2018-07-17T13:12:22.651Z,510
2018-07-17T13:13:22.392Z,295
2018-07-17T13:14:21.854Z,1810
2018-07-17T13:15:22.652Z,1790
2018-07-17T13:16:22.396Z,1750
2018-07-17T13:17:22.757Z,1705
2018-07-17T13:18:22.675Z,1745
2018-07-17T13:19:22.686Z,1720
2018-07-17T13:20:22.684Z,1660
2018-07-17T13:21:22.687Z,1570
2018-07-17T13:22:22.727Z,1510
2018-07-17T13:23:22.717Z,1500
2018-07-17T13:24:22.194Z,1575
2018-07-17T13:25:22.469Z,1620
2018-07-17T13:26:22.458Z,1675
2018-07-17T13:27:22.996Z,1805
2018-07-17T13:28:22.746Z,1865
2018-07-17T13:29:22.797Z,1900
2018-07-17T13:30:22.480Z,1920
2018-07-17T13:31:23.017Z,1895
2018-07-17T13:32:23.021Z,1795
2018-07-17T13:33:23.028Z,1720
2018-07-17T13:34:23.047Z,1600
2018-07-17T13:35:22.253Z,1465
2018-07-17T13:36:22.533Z,1510
2018-07-17T13:37:22.799Z,1505
2018-07-17T13:38:22.531Z,1550
2018-07-17T13:39:22.851Z,1600
2018-07-17T13:40:22.545Z,1695
2018-07-17T13:41:22.287Z,1750
2018-07-17T13:42:22.821Z,1775
2018-07-17T13:43:22.835Z,1735
2018-07-17T13:44:22.850Z,1690
2018-07-17T13:45:22.582Z,1650
2018-07-17T13:46:22.324Z,1435
2018-07-17T13:47:22.857Z,1285
2018-07-17T13:48:22.866Z,580
2018-07-17T13:49:22.869Z,1265
2018-07-17T13:50:22.995Z,265
2018-07-17T13:51:22.886Z,260
2018-07-17T13:52:22.908Z,1230
2018-07-17T13:53:22.641Z,300
2018-07-17T13:54:22.911Z,335
2018-07-17T13:55:23.279Z,1140
2018-07-17T13:56:22.986Z,310
2018-07-17T13:57:23.183Z,295
2018-07-17T13:58:22.928Z,300
2018-07-17T13:59:22.670Z,285